Time;durP1;ratioP1;P1;durP2;ratioP2;P2;SDS_P1;SDS_P2;PMS_P1;PMS_P2;Temp;Humidity;BMP_temperature;BMP_pressure;BME280_temperature;BME280_humidity;BME280_pressure;Samples;Min_cycle;Max_cycle;Signal;HPM_P1;HPM_P2
2021/01/31 00:00:15;;;;;;;;;;;;;;;12.17;64.58;99649.38;5036845;28;1361;-59
2021/01/31 00:02:40;;;;;;;;;;;;;;;12.18;64.69;99647.59;5032134;28;1645;-70
2021/01/31 00:05:06;;;;;;;;;;;;;;;12.18;63.78;99632.53;5025637;28;809;-70
2021/01/31 00:07:31;;;;;;;;;;;;;;;12.20;63.78;99646.50;5026619;28;1619;-70
2021/01/31 00:09:57;;;;;;;;;;;;;;;12.18;64.18;99647.59;5030828;28;1617;-58
2021/01/31 00:12:22;;;;;;;;;;;;;;;12.17;64.27;99646.72;5036480;28;1369;-58
2021/01/31 00:14:47;;;;;;;;;;;;;;;12.19;64.35;99651.91;5036327;28;1967;-58
2021/01/31 00:17:13;;;;;;;;;;;;;;;12.16;64.63;99634.44;5036485;28;1581;-59
2021/01/31 00:19:38;;;;;;;;;;;;;;;12.12;64.11;99635.66;5036389;28;1168;-59
2021/01/31 00:22:03;;;;;;;;;;;;;;;12.18;63.91;99650.22;5036443;28;1246;-70
2021/01/31 00:24:29;;;;;;;;;;;;;;;12.15;65.22;99648.63;5033157;28;1361;-70
2021/01/31 00:26:54;;;;;;;;;;;;;;;12.11;64.72;99634.78;5025427;28;1565;-70
2021/01/31 00:29:19;;;;;;;;;;;;;;;12.11;64.91;99639.25;5029536;28;1598;-58
2021/01/31 00:31:45;;;;;;;;;;;;;;;12.11;65.19;99632.13;5051119;28;1393;-70
2021/01/31 00:34:11;;;;;;;;;;;;;;;12.13;63.96;99634.66;5036716;28;1882;-65
2021/01/31 00:36:36;;;;;;;;;;;;;;;12.10;64.28;99637.56;5035630;28;1547;-70
2021/01/31 00:39:02;;;;;;;;;;;;;;;12.11;65.57;99652.50;5036041;28;1353;-58
2021/01/31 00:41:27;;;;;;;;;;;;;;;12.10;64.59;99643.72;5036159;28;1538;-70
2021/01/31 00:43:52;;;;;;;;;;;;;;;12.10;65.46;99651.66;5036524;28;1502;-70
2021/01/31 00:46:18;;;;;;;;;;;;;;;12.10;65.55;99649.00;5029322;28;882;-58
2021/01/31 00:48:43;;;;;;;;;;;;;;;12.12;64.61;99648.91;5040950;28;1508;-58
2021/01/31 00:51:08;;;;;;;;;;;;;;;12.09;64.83;99657.06;5036013;28;1756;-70
2021/01/31 00:53:33;;;;;;;;;;;;;;;12.06;65.40;99658.16;5035839;28;1890;-58
2021/01/31 00:55:59;;;;;;;;;;;;;;;12.10;65.62;99656.13;5027412;28;1140;-58
2021/01/31 00:58:24;;;;;;;;;;;;;;;12.11;63.98;99666.56;5050064;28;1697;-70
2021/01/31 01:00:50;;;;;;;;;;;;;;;12.07;64.12;99654.53;5034842;28;1744;-70
2021/01/31 01:03:15;;;;;;;;;;;;;;;12.09;63.97;99665.00;5027428;28;1539;-70
2021/01/31 01:05:41;;;;;;;;;;;;;;;12.11;64.06;99655.16;5052216;28;1201;-70
2021/01/31 01:08:06;;;;;;;;;;;;;;;12.08;64.35;99658.03;5029225;28;1815;-59
2021/01/31 01:10:33;;;;;;;;;;;;;;;12.07;64.67;99651.88;5028326;28;1514;-66
2021/01/31 01:12:59;;;;;;;;;;;;;;;12.09;63.87;99663.19;5035191;28;1562;-70
2021/01/31 01:15:26;;;;;;;;;;;;;;;12.09;65.30;99654.41;5035300;28;1973;-70
2021/01/31 01:17:52;;;;;;;;;;;;;;;12.10;64.69;99666.72;5030948;28;1377;-70
2021/01/31 01:20:17;;;;;;;;;;;;;;;12.09;63.83;99649.94;5023035;28;809;-61
2021/01/31 01:22:43;;;;;;;;;;;;;;;12.10;63.84;99656.97;5030624;28;1697;-70
2021/01/31 01:25:09;;;;;;;;;;;;;;;12.12;64.11;99662.16;5031398;28;1581;-70
2021/01/31 01:27:34;;;;;;;;;;;;;;;12.09;63.94;99659.72;5027724;28;1555;-70
2021/01/31 01:30:00;;;;;;;;;;;;;;;12.10;63.94;99666.72;5025280;28;1593;-65
2021/01/31 01:32:25;;;;;;;;;;;;;;;12.08;64.58;99653.59;5031194;28;1676;-70
2021/01/31 01:34:50;;;;;;;;;;;;;;;12.07;63.97;99640.44;5036240;28;1961;-59
2021/01/31 01:37:16;;;;;;;;;;;;;;;12.12;64.02;99654.19;5034370;28;1600;-70
2021/01/31 01:39:41;;;;;;;;;;;;;;;12.11;64.63;99649.84;5050566;28;1629;-70
2021/01/31 01:42:07;;;;;;;;;;;;;;;12.06;64.31;99652.03;5034910;28;1377;-70
2021/01/31 01:44:33;;;;;;;;;;;;;;;12.07;63.87;99645.75;5034739;28;1637;-70
2021/01/31 01:46:59;;;;;;;;;;;;;;;12.09;65.54;99646.47;5034992;28;1558;-58
2021/01/31 01:49:30;;;;;;;;;;;;;;;12.10;65.28;99642.88;5036155;28;790;-59
2021/01/31 01:52:02;;;;;;;;;;;;;;;12.09;63.92;99660.56;5046200;28;1795;-70
2021/01/31 01:54:29;;;;;;;;;;;;;;;12.11;65.39;99653.31;5029921;28;1890;-58
2021/01/31 01:56:58;;;;;;;;;;;;;;;12.09;65.39;99652.59;5045942;28;1361;-58
2021/01/31 01:59:23;;;;;;;;;;;;;;;12.11;63.78;99653.31;5037137;28;1765;-59
2021/01/31 02:01:55;;;;;;;;;;;;;;;12.09;64.45;99646.47;5034533;28;1768;-70
2021/01/31 02:04:21;;;;;;;;;;;;;;;12.06;65.23;99638.78;5035696;28;814;-58
2021/01/31 02:06:47;;;;;;;;;;;;;;;12.10;64.34;99661.41;5033866;28;1702;-59
2021/01/31 02:09:12;;;;;;;;;;;;;;;12.05;64.21;99650.31;5033293;28;1438;-58
2021/01/31 02:11:38;;;;;;;;;;;;;;;12.06;65.57;99636.13;5033949;28;1414;-66
2021/01/31 02:14:06;;;;;;;;;;;;;;;12.09;64.91;99649.94;5034184;28;1913;-58
2021/01/31 02:16:44;;;;;;;;;;;;;;;12.04;65.41;99633.59;5029303;28;1378;-58
2021/01/31 02:19:24;;;;;;;;;;;;;;;12.07;63.88;99664.28;5026320;28;867;-58
2021/01/31 02:21:52;;;;;;;;;;;;;;;12.06;64.89;99662.63;5032985;28;1603;-70
2021/01/31 02:24:32;;;;;;;;;;;;;;;12.05;63.92;99676.81;5024545;28;1437;-62
2021/01/31 02:27:16;;;;;;;;;;;;;;;12.07;65.04;99666.94;5024759;28;1586;-59
2021/01/31 02:30:00;;;;;;;;;;;;;;;12.07;64.27;99666.94;5024456;28;1440;-67
2021/01/31 02:32:28;;;;;;;;;;;;;;;12.08;63.98;99660.69;5022779;28;1401;-59
2021/01/31 02:34:56;;;;;;;;;;;;;;;12.08;64.16;99658.88;5033088;28;1889;-70
2021/01/31 02:37:30;;;;;;;;;;;;;;;12.06;63.96;99659.97;5026563;28;1497;-70
2021/01/31 02:40:01;;;;;;;;;;;;;;;12.09;63.85;99657.06;5038102;28;1595;-58
2021/01/31 02:42:36;;;;;;;;;;;;;;;12.11;64.81;99655.16;5053684;28;1357;-58
2021/01/31 02:45:19;;;;;;;;;;;;;;;12.23;64.34;99677.22;5036812;28;1571;-70
2021/01/31 02:47:52;;;;;;;;;;;;;;;12.39;64.18;99653.84;5037089;28;1570;-58
2021/01/31 02:50:23;;;;;;;;;;;;;;;12.59;62.82;99654.09;5037741;28;1376;-58
2021/01/31 02:53:04;;;;;;;;;;;;;;;12.72;63.21;99653.00;5038058;28;1749;-58
2021/01/31 02:55:34;;;;;;;;;;;;;;;12.88;62.32;99655.28;5022433;28;1890;-70
2021/01/31 02:58:06;;;;;;;;;;;;;;;13.04;61.83;99651.41;5037175;28;1408;-59
2021/01/31 03:03:09;;;;;;;;;;;;;;;13.26;61.45;99653.16;5023029;28;1601;-55
2021/01/31 03:05:46;;;;;;;;;;;;;;;13.42;61.26;99648.28;5021191;28;853;-55
2021/01/31 03:08:25;;;;;;;;;;;;;;;13.52;61.45;99641.25;5029015;28;2014;-55
2021/01/31 03:10:50;;;;;;;;;;;;;;;13.70;60.55;99643.34;5044019;22;3622;-71
2021/01/31 03:13:29;;;;;;;;;;;;;;;13.75;60.86;99634.97;5046838;28;1906;-59
2021/01/31 03:15:59;;;;;;;;;;;;;;;13.84;60.32;99642.19;5047988;28;1570;-58
2021/01/31 03:18:30;;;;;;;;;;;;;;;13.97;60.57;99634.03;5047313;28;1566;-71
2021/01/31 03:21:01;;;;;;;;;;;;;;;14.03;60.13;99642.31;5045498;28;1566;-71
2021/01/31 03:23:35;;;;;;;;;;;;;;;14.12;60.24;99649.50;5046750;28;750;-71
2021/01/31 03:26:20;;;;;;;;;;;;;;;14.18;59.76;99650.78;5049165;28;1629;-58
2021/01/31 03:28:46;;;;;;;;;;;;;;;14.29;60.17;99642.72;5048168;28;1486;-58
2021/01/31 03:31:12;;;;;;;;;;;;;;;14.40;59.69;99646.28;5045427;28;1741;-71
2021/01/31 03:33:44;;;;;;;;;;;;;;;14.44;59.42;99653.88;5050574;28;1961;-70
2021/01/31 03:36:09;;;;;;;;;;;;;;;14.53;59.19;99654.88;5038809;28;1425;-71
2021/01/31 03:38:39;;;;;;;;;;;;;;;14.56;59.62;99653.78;5046938;28;1342;-71
2021/01/31 03:41:06;;;;;;;;;;;;;;;14.62;59.16;99651.47;5038703;28;1192;-58
2021/01/31 03:43:32;;;;;;;;;;;;;;;14.69;59.10;99665.91;5047817;28;1515;-58
2021/01/31 03:46:00;;;;;;;;;;;;;;;14.78;58.71;99663.41;5033718;28;1539;-58
2021/01/31 03:48:28;;;;;;;;;;;;;;;14.84;58.90;99652.22;5047102;28;1752;-58
2021/01/31 03:50:53;;;;;;;;;;;;;;;14.93;58.80;99651.41;5036978;28;1366;-71
2021/01/31 03:53:18;;;;;;;;;;;;;;;15.03;58.98;99656.75;5047017;28;1902;-58
2021/01/31 03:55:44;;;;;;;;;;;;;;;15.08;58.34;99651.84;5031580;28;1458;-71
2021/01/31 03:58:11;;;;;;;;;;;;;;;15.13;58.56;99656.78;5046783;28;1686;-66
2021/01/31 04:00:43;;;;;;;;;;;;;;;15.19;58.44;99664.22;5062379;28;1727;-59
2021/01/31 04:03:12;;;;;;;;;;;;;;;15.26;58.56;99662.66;5045490;28;1648;-67
2021/01/31 04:05:40;;;;;;;;;;;;;;;15.25;58.60;99661.00;5052192;28;821;-71
2021/01/31 04:08:06;;;;;;;;;;;;;;;15.29;57.98;99659.75;5049088;28;1672;-58
2021/01/31 04:10:32;;;;;;;;;;;;;;;15.35;57.94;99669.00;5045846;28;1753;-71
2021/01/31 04:12:58;;;;;;;;;;;;;;;15.37;58.29;99662.56;5049423;28;1586;-71
2021/01/31 04:15:29;;;;;;;;;;;;;;;15.42;57.95;99668.31;5049142;28;1987;-70
2021/01/31 04:17:54;;;;;;;;;;;;;;;15.48;57.61;99658.94;5053645;28;1593;-71
2021/01/31 04:20:20;;;;;;;;;;;;;;;15.49;57.71;99664.09;5054794;28;1187;-58
2021/01/31 04:22:45;;;;;;;;;;;;;;;15.56;57.71;99667.06;5066376;28;1516;-71
2021/01/31 04:25:10;;;;;;;;;;;;;;;15.59;57.08;99666.78;5049667;28;1588;-71
2021/01/31 04:27:36;;;;;;;;;;;;;;;15.68;57.50;99673.94;5041349;28;1728;-66
2021/01/31 04:30:03;;;;;;;;;;;;;;;15.69;57.25;99672.09;5046546;28;1566;-71
2021/01/31 04:32:28;;;;;;;;;;;;;;;15.75;56.85;99671.56;5047377;28;1370;-69
2021/01/31 04:34:53;;;;;;;;;;;;;;;15.79;57.08;99670.31;5046442;28;1962;-58
2021/01/31 04:37:23;;;;;;;;;;;;;;;15.71;57.04;99659.47;5053593;28;1481;-58
2021/01/31 04:39:49;;;;;;;;;;;;;;;15.81;57.74;99670.16;5048818;28;1704;-58
2021/01/31 04:42:15;;;;;;;;;;;;;;;15.87;57.25;99666.94;5044006;28;1634;-58
2021/01/31 04:44:41;;;;;;;;;;;;;;;15.86;57.52;99668.75;5050155;28;1390;-71
2021/01/31 04:47:11;;;;;;;;;;;;;;;15.84;57.09;99657.41;5021360;28;1581;-58
2021/01/31 04:49:54;;;;;;;;;;;;;;;15.83;57.68;99661.03;5046172;28;848;-66
2021/01/31 04:52:38;;;;;;;;;;;;;;;15.80;57.77;99658.69;5053086;28;1516;-58
2021/01/31 04:55:21;;;;;;;;;;;;;;;15.81;57.60;99655.00;5049681;28;1934;-58
2021/01/31 04:57:46;;;;;;;;;;;;;;;15.81;57.93;99655.00;5044903;28;1401;-71
2021/01/31 05:00:21;;;;;;;;;;;;;;;15.86;57.62;99658.09;5044755;28;1361;-58
2021/01/31 05:02:49;;;;;;;;;;;;;;;15.84;58.19;99652.06;5045008;28;1409;-71
2021/01/31 05:05:24;;;;;;;;;;;;;;;15.89;57.60;99652.47;5041445;28;818;-70
2021/01/31 05:07:55;;;;;;;;;;;;;;;15.86;58.00;99639.44;5042596;28;1477;-70
2021/01/31 05:10:20;;;;;;;;;;;;;;;15.93;57.69;99638.88;5045079;28;1685;-59
2021/01/31 05:12:58;;;;;;;;;;;;;;;15.91;57.68;99631.84;5042078;28;1631;-71
2021/01/31 05:15:23;;;;;;;;;;;;;;;15.95;57.36;99626.22;5050513;28;1918;-70
2021/01/31 05:17:50;;;;;;;;;;;;;;;16.00;58.33;99630.16;5048765;28;1393;-67
2021/01/31 05:20:18;;;;;;;;;;;;;;;16.03;58.00;99626.34;5039798;28;1260;-71
2021/01/31 05:22:49;;;;;;;;;;;;;;;16.03;57.46;99631.69;5043881;28;1653;-71
2021/01/31 05:25:15;;;;;;;;;;;;;;;16.03;57.83;99631.69;5048629;28;1363;-58
2021/01/31 05:27:42;;;;;;;;;;;;;;;16.01;57.44;99623.00;5048383;28;1570;-67
2021/01/31 05:30:07;;;;;;;;;;;;;;;16.07;58.30;99638.41;5044529;28;1549;-59
2021/01/31 05:32:52;;;;;;;;;;;;;;;16.07;57.58;99633.06;5046352;28;1546;-58
2021/01/31 05:35:22;;;;;;;;;;;;;;;16.07;58.30;99633.06;5047876;28;1906;-58
2021/01/31 05:37:47;;;;;;;;;;;;;;;16.05;57.97;99651.88;5048070;28;1497;-58
2021/01/31 05:40:25;;;;;;;;;;;;;;;16.05;57.58;99632.38;5041192;28;1416;-60
2021/01/31 05:42:50;;;;;;;;;;;;;;;16.06;57.90;99640.25;5046046;28;1374;-71
2021/01/31 05:45:19;;;;;;;;;;;;;;;16.07;57.31;99635.75;5044399;28;1354;-71
2021/01/31 05:47:44;;;;;;;;;;;;;;;16.09;57.75;99653.31;5044130;28;1334;-58
2021/01/31 05:50:28;;;;;;;;;;;;;;;16.14;58.14;99655.53;5052696;28;1175;-58
2021/01/31 05:52:53;;;;;;;;;;;;;;;16.11;58.38;99639.81;5062981;28;1752;-69
2021/01/31 05:55:21;;;;;;;;;;;;;;;16.12;57.73;99635.34;5052976;28;1941;-70
2021/01/31 05:57:46;;;;;;;;;;;;;;;16.15;58.55;99646.53;5041905;28;1557;-58
2021/01/31 06:00:20;;;;;;;;;;;;;;;16.16;58.61;99658.91;5040700;28;1598;-66
2021/01/31 06:03:02;;;;;;;;;;;;;;;16.17;58.24;99649.06;5041567;28;1526;-58
2021/01/31 06:05:28;;;;;;;;;;;;;;;16.16;57.83;99661.56;5045954;28;852;-58
2021/01/31 06:08:02;;;;;;;;;;;;;;;16.17;57.47;99665.91;5047508;28;1625;-58
2021/01/31 06:10:28;;;;;;;;;;;;;;;16.19;58.58;99653.25;5044794;28;1728;-71
2021/01/31 06:13:02;;;;;;;;;;;;;;;16.19;57.72;99642.59;5043803;28;1616;-71
2021/01/31 06:15:47;;;;;;;;;;;;;;;16.21;58.54;99656.63;5039848;28;1910;-71
2021/01/31 06:18:32;;;;;;;;;;;;;;;16.22;58.09;99652.97;5049780;28;1373;-58
2021/01/31 06:21:10;;;;;;;;;;;;;;;16.22;58.53;99655.66;5052112;28;1453;-58
2021/01/31 06:23:43;;;;;;;;;;;;;;;16.26;57.31;99658.88;5046743;28;1405;-58
2021/01/31 06:26:20;;;;;;;;;;;;;;;16.23;58.30;99654.66;5044345;28;866;-71
2021/01/31 06:28:46;;;;;;;;;;;;;;;16.30;57.89;99665.59;5044049;28;801;-71
2021/01/31 06:31:18;;;;;;;;;;;;;;;16.33;57.76;99669.78;5040736;28;1835;-58
2021/01/31 06:33:44;;;;;;;;;;;;;;;16.34;57.23;99667.00;5041557;28;1886;-58
2021/01/31 06:36:18;;;;;;;;;;;;;;;16.37;58.12;99674.69;5052323;28;1711;-70
2021/01/31 06:38:43;;;;;;;;;;;;;;;16.45;58.17;99673.97;5043352;28;1576;-71
2021/01/31 06:41:22;;;;;;;;;;;;;;;16.45;58.18;99681.97;5041963;28;1545;-58
2021/01/31 06:44:05;;;;;;;;;;;;;;;16.49;57.34;99680.69;5043886;28;810;-71
2021/01/31 06:46:39;;;;;;;;;;;;;;;16.55;57.31;99679.28;5041769;28;1376;-59
2021/01/31 06:49:04;;;;;;;;;;;;;;;16.59;57.26;99681.53;5046905;28;809;-71
2021/01/31 06:51:43;;;;;;;;;;;;;;;16.65;56.73;99685.41;5035545;28;1766;-58
2021/01/31 06:54:08;;;;;;;;;;;;;;;16.75;56.55;99683.56;5041657;28;1886;-71
2021/01/31 06:56:54;;;;;;;;;;;;;;;16.76;57.18;99689.75;5042978;28;1334;-58
2021/01/31 06:59:36;;;;;;;;;;;;;;;16.86;56.80;99709.25;5045218;28;1585;-58
2021/01/31 07:02:17;;;;;;;;;;;;;;;16.88;56.44;99707.28;5045225;28;1613;-58
2021/01/31 07:04:42;;;;;;;;;;;;;;;16.90;56.33;99713.31;5041818;28;872;-58
2021/01/31 07:07:26;;;;;;;;;;;;;;;16.94;57.42;99722.72;5038365;28;1684;-58
2021/01/31 07:09:51;;;;;;;;;;;;;;;16.92;56.70;99731.88;5046666;28;1562;-64
2021/01/31 07:12:24;;;;;;;;;;;;;;;16.96;56.60;99725.25;5046687;28;1369;-71
2021/01/31 07:14:52;;;;;;;;;;;;;;;16.95;56.47;99740.44;5045021;28;1945;-58
2021/01/31 07:17:36;;;;;;;;;;;;;;;16.95;56.80;99753.78;5048421;28;1574;-58
2021/01/31 07:20:01;;;;;;;;;;;;;;;16.94;56.10;99757.44;5046468;28;742;-58
2021/01/31 07:22:26;;;;;;;;;;;;;;;16.90;56.63;99748.88;5049402;28;1354;-71
2021/01/31 07:25:02;;;;;;;;;;;;;;;16.92;56.79;99756.72;5048497;28;1556;-71
2021/01/31 07:27:31;;;;;;;;;;;;;;;16.91;57.29;99739.03;5046639;28;1344;-71
2021/01/31 07:29:59;;;;;;;;;;;;;;;16.94;56.53;99749.41;5045254;28;1647;-71
2021/01/31 07:32:28;;;;;;;;;;;;;;;16.97;57.53;99757.16;5048399;28;1373;-71
2021/01/31 07:35:00;;;;;;;;;;;;;;;16.97;57.04;99757.16;5046618;28;1947;-58
2021/01/31 07:37:25;;;;;;;;;;;;;;;16.98;56.78;99766.84;5050854;28;1712;-71
2021/01/31 07:39:57;;;;;;;;;;;;;;;17.00;57.03;99764.84;5046244;28;1230;-58
2021/01/31 07:42:24;;;;;;;;;;;;;;;17.00;56.44;99772.03;5045706;28;1377;-65
2021/01/31 07:44:55;;;;;;;;;;;;;;;17.00;56.75;99751.50;5047380;28;1533;-71
2021/01/31 07:47:22;;;;;;;;;;;;;;;17.05;56.42;99773.28;5044284;28;1576;-58
2021/01/31 07:49:59;;;;;;;;;;;;;;;17.07;56.30;99778.47;5046203;28;1274;-58
2021/01/31 07:52:28;;;;;;;;;;;;;;;17.11;56.19;99769.19;5049648;28;1562;-58
2021/01/31 07:55:11;;;;;;;;;;;;;;;17.10;56.46;99771.00;5045887;28;1894;-58
2021/01/31 07:57:38;;;;;;;;;;;;;;;17.15;56.91;99777.72;5046733;28;1628;-66
2021/01/31 08:00:16;;;;;;;;;;;;;;;17.13;57.53;99774.34;5046649;28;1566;-70
2021/01/31 08:02:45;;;;;;;;;;;;;;;17.13;56.56;99782.38;5046621;28;1727;-71
2021/01/31 08:05:11;;;;;;;;;;;;;;;17.16;57.38;99784.75;5048643;28;918;-59
2021/01/31 08:07:56;;;;;;;;;;;;;;;17.13;57.54;99769.88;5050721;28;1512;-59
2021/01/31 08:10:44;;;;;;;;;;;;;;;17.18;57.47;99801.47;5050173;28;1563;-58
2021/01/31 08:13:10;;;;;;;;;;;;;;;17.16;57.33;99788.25;5038701;28;1786;-58
2021/01/31 08:15:40;;;;;;;;;;;;;;;17.15;57.05;99783.06;5042243;28;1906;-58
2021/01/31 08:18:06;;;;;;;;;;;;;;;17.16;57.39;99790.09;5051721;28;1641;-58
2021/01/31 08:20:38;;;;;;;;;;;;;;;17.10;57.07;99787.00;5059274;28;1183;-58
2021/01/31 08:23:23;;;;;;;;;;;;;;;17.07;56.74;99781.97;5048718;28;1548;-58
2021/01/31 08:26:02;;;;;;;;;;;;;;;17.04;56.73;99776.91;5030458;28;1736;-59
2021/01/31 08:28:29;;;;;;;;;;;;;;;17.04;57.12;99773.41;5046607;28;1477;-58
2021/01/31 08:31:09;;;;;;;;;;;;;;;17.00;57.37;99775.53;5044550;28;1361;-59
2021/01/31 08:33:35;;;;;;;;;;;;;;;16.95;56.95;99759.13;5045421;28;1893;-58
2021/01/31 08:36:00;;;;;;;;;;;;;;;16.97;57.13;99770.50;5046043;28;856;-71
2021/01/31 08:38:31;;;;;;;;;;;;;;;16.94;57.61;99764.59;5043192;28;1739;-70
2021/01/31 08:40:56;;;;;;;;;;;;;;;16.93;57.06;99779.78;5049761;28;1719;-71
2021/01/31 08:43:25;;;;;;;;;;;;;;;16.93;58.40;99785.13;5045843;28;1500;-58
2021/01/31 08:45:51;;;;;;;;;;;;;;;16.92;57.30;99783.44;5041929;28;1472;-59
2021/01/31 08:48:23;;;;;;;;;;;;;;;16.90;57.53;99804.94;5050766;28;1601;-71
2021/01/31 08:51:00;;;;;;;;;;;;;;;16.93;57.52;99810.97;5056205;28;780;-71
2021/01/31 08:53:26;;;;;;;;;;;;;;;16.93;57.37;99801.16;5046727;28;1894;-58
2021/01/31 08:55:51;;;;;;;;;;;;;;;16.92;57.81;99803.97;5048540;28;1594;-58
2021/01/31 08:58:17;;;;;;;;;;;;;;;16.93;57.59;99805.63;5047461;28;1575;-71
2021/01/31 09:00:42;;;;;;;;;;;;;;;16.92;57.75;99803.97;5046060;28;1502;-67
2021/01/31 09:03:08;;;;;;;;;;;;;;;16.91;58.20;99813.81;5047363;28;1665;-71
2021/01/31 09:05:33;;;;;;;;;;;;;;;16.88;57.62;99812.25;5054378;28;1230;-58
2021/01/31 09:08:00;;;;;;;;;;;;;;;16.90;58.78;99817.47;5049349;28;1572;-58
2021/01/31 09:10:39;;;;;;;;;;;;;;;16.91;57.60;99819.16;5046639;28;1696;-59
2021/01/31 09:13:06;;;;;;;;;;;;;;;16.86;58.74;99816.91;5046027;28;1649;-59
2021/01/31 09:15:31;;;;;;;;;;;;;;;16.89;57.69;99829.97;5042674;28;1914;-71
2021/01/31 09:18:04;;;;;;;;;;;;;;;16.89;57.68;99831.78;5049796;28;1421;-58
2021/01/31 09:20:30;;;;;;;;;;;;;;;16.90;57.75;99833.47;5055124;28;793;-71
2021/01/31 09:22:57;;;;;;;;;;;;;;;16.90;57.54;99825.47;5048899;28;1729;-58
2021/01/31 09:25:23;;;;;;;;;;;;;;;16.95;57.69;99825.91;5045915;28;1486;-58
2021/01/31 09:28:00;;;;;;;;;;;;;;;16.94;57.44;99821.53;5044536;28;1594;-68
2021/01/31 09:30:26;;;;;;;;;;;;;;;16.98;58.71;99820.25;5045064;28;1589;-71
2021/01/31 09:32:55;;;;;;;;;;;;;;;16.99;58.61;99805.91;5045568;28;1401;-71
2021/01/31 09:35:23;;;;;;;;;;;;;;;17.01;58.23;99814.63;5040827;28;1890;-58
2021/01/31 09:37:49;;;;;;;;;;;;;;;17.02;57.30;99813.63;5043110;28;1752;-71
2021/01/31 09:40:15;;;;;;;;;;;;;;;17.03;57.73;99801.09;5043505;28;1356;-58
2021/01/31 09:42:42;;;;;;;;;;;;;;;17.01;57.72;99798.59;5042273;28;1375;-59
2021/01/31 09:45:19;;;;;;;;;;;;;;;16.96;57.68;99802.69;5046099;28;1459;-71
2021/01/31 09:47:48;;;;;;;;;;;;;;;16.98;58.14;99804.22;5045131;28;1419;-71
2021/01/31 09:50:13;;;;;;;;;;;;;;;16.96;57.57;99816.88;5048001;28;998;-66
2021/01/31 09:52:42;;;;;;;;;;;;;;;16.97;57.90;99807.03;5049515;28;1708;-71
2021/01/31 09:55:26;;;;;;;;;;;;;;;17.01;57.64;99813.75;5044756;28;1890;-66
2021/01/31 09:57:51;;;;;;;;;;;;;;;17.00;58.71;99810.25;5041874;28;1565;-59
2021/01/31 10:00:24;;;;;;;;;;;;;;;17.00;57.44;99796.91;5049427;28;1554;-71
2021/01/31 10:02:49;;;;;;;;;;;;;;;17.06;58.07;99790.97;5044071;28;1480;-71
2021/01/31 10:05:17;;;;;;;;;;;;;;;17.05;58.09;99805.34;5041533;28;924;-58
2021/01/31 10:07:43;;;;;;;;;;;;;;;17.06;58.17;99801.66;5044332;28;1563;-58
2021/01/31 10:10:25;;;;;;;;;;;;;;;17.08;57.80;99794.34;5044803;28;1354;-58
2021/01/31 10:13:10;;;;;;;;;;;;;;;17.08;57.33;99794.34;5044113;28;1585;-71
2021/01/31 10:15:36;;;;;;;;;;;;;;;17.13;57.59;99814.41;5046233;28;1971;-59
2021/01/31 10:18:02;;;;;;;;;;;;;;;17.15;57.72;99817.78;5044035;28;1424;-59
2021/01/31 10:20:30;;;;;;;;;;;;;;;17.13;58.60;99811.75;5038323;28;771;-58
2021/01/31 10:23:16;;;;;;;;;;;;;;;17.16;58.41;99796.28;5046673;28;1505;-58
2021/01/31 10:25:55;;;;;;;;;;;;;;;17.19;58.11;99811.16;5035398;28;1575;-58
2021/01/31 10:28:28;;;;;;;;;;;;;;;17.23;58.44;99807.22;5043675;28;1396;-59
2021/01/31 10:30:53;;;;;;;;;;;;;;;17.21;57.54;99791.34;5042154;28;1588;-58
2021/01/31 10:33:37;;;;;;;;;;;;;;;17.26;57.81;99802.41;5046810;28;823;-71
2021/01/31 10:36:17;;;;;;;;;;;;;;;17.29;58.44;99806.66;5044951;28;804;-71
2021/01/31 10:38:43;;;;;;;;;;;;;;;17.28;58.58;99810.28;5045547;28;873;-58
2021/01/31 10:41:08;;;;;;;;;;;;;;;17.27;58.26;99797.94;5046171;28;1740;-71
2021/01/31 10:43:34;;;;;;;;;;;;;;;17.29;58.65;99807.47;5047318;28;1578;-58
2021/01/31 10:45:59;;;;;;;;;;;;;;;17.28;58.26;99811.13;5042732;28;1394;-71
2021/01/31 10:48:24;;;;;;;;;;;;;;;17.27;58.27;99800.59;5047047;28;1373;-58
2021/01/31 10:50:49;;;;;;;;;;;;;;;17.26;57.52;99801.59;5039253;28;805;-71
2021/01/31 10:53:15;;;;;;;;;;;;;;;17.28;58.76;99802.28;5046972;28;1647;-58
2021/01/31 10:55:40;;;;;;;;;;;;;;;17.27;57.27;99803.28;5049609;28;1890;-66
2021/01/31 10:58:05;;;;;;;;;;;;;;;17.23;58.20;99797.38;5049673;28;1548;-71
2021/01/31 11:00:30;;;;;;;;;;;;;;;17.25;57.84;99791.91;5048373;28;1407;-71
2021/01/31 11:02:56;;;;;;;;;;;;;;;17.23;58.74;99796.53;5048552;28;1517;-71
2021/01/31 11:05:22;;;;;;;;;;;;;;;17.27;58.54;99808.63;5044634;28;764;-58
2021/01/31 11:07:47;;;;;;;;;;;;;;;17.25;57.82;99800.75;5049368;28;1768;-71
2021/01/31 11:10:13;;;;;;;;;;;;;;;17.21;58.94;99801.16;5047598;28;1625;-58
2021/01/31 11:12:38;;;;;;;;;;;;;;;17.16;57.95;99795.44;5047150;28;1602;-71
2021/01/31 11:15:05;;;;;;;;;;;;;;;17.16;58.61;99785.59;5048888;28;1921;-71
2021/01/31 11:17:30;;;;;;;;;;;;;;;17.18;58.89;99777.44;5049146;28;1358;-58
2021/01/31 11:19:55;;;;;;;;;;;;;;;17.22;58.30;99789.50;5047076;28;868;-71
2021/01/31 11:22:20;;;;;;;;;;;;;;;17.18;58.72;99766.75;5045674;28;1257;-71
2021/01/31 11:24:45;;;;;;;;;;;;;;;17.19;58.22;99779.09;5048639;28;1390;-58
2021/01/31 11:27:11;;;;;;;;;;;;;;;17.22;58.15;99786.84;5046494;28;1429;-71
2021/01/31 11:29:36;;;;;;;;;;;;;;;17.23;58.66;99791.19;5056035;28;1531;-58
2021/01/31 11:32:02;;;;;;;;;;;;;;;17.23;58.64;99775.16;5048411;28;1428;-66
2021/01/31 11:34:27;;;;;;;;;;;;;;;17.26;58.60;99781.03;5046526;28;1898;-59
2021/01/31 11:36:52;;;;;;;;;;;;;;;17.29;58.62;99785.28;5045019;28;1583;-62
2021/01/31 11:39:17;;;;;;;;;;;;;;;17.26;58.11;99774.88;5050649;28;1374;-71
2021/01/31 11:41:43;;;;;;;;;;;;;;;17.25;58.13;99773.19;5053542;28;1393;-71
2021/01/31 11:44:08;;;;;;;;;;;;;;;17.26;57.81;99767.69;5048110;28;1564;-71
2021/01/31 11:46:34;;;;;;;;;;;;;;;17.25;58.43;99767.84;5048133;28;1176;-58
2021/01/31 11:49:00;;;;;;;;;;;;;;;17.20;59.16;99776.28;5046389;28;891;-58
2021/01/31 11:51:25;;;;;;;;;;;;;;;17.20;59.13;99764.78;5055315;28;1720;-58
2021/01/31 11:53:50;;;;;;;;;;;;;;;17.20;58.10;99772.78;5067002;28;1890;-58
2021/01/31 11:56:16;;;;;;;;;;;;;;;17.19;58.62;99781.78;5045919;28;1569;-71
2021/01/31 11:58:41;;;;;;;;;;;;;;;17.18;59.17;99788.97;5061565;28;1347;-58
2021/01/31 12:01:07;;;;;;;;;;;;;;;17.23;59.31;99789.38;5049647;28;1493;-58
2021/01/31 12:03:32;;;;;;;;;;;;;;;17.22;59.22;99790.34;5043252;28;1631;-58
2021/01/31 12:05:58;;;;;;;;;;;;;;;17.21;59.18;99782.47;5054166;28;1377;-71
2021/01/31 12:08:23;;;;;;;;;;;;;;;17.21;58.89;99771.78;5049793;28;880;-71
2021/01/31 12:10:50;;;;;;;;;;;;;;;17.22;59.32;99763.63;5036002;28;1717;-70
2021/01/31 12:13:17;;;;;;;;;;;;;;;17.23;58.56;99793.84;5051557;28;1520;-58
2021/01/31 12:15:44;;;;;;;;;;;;;;;17.22;58.60;99794.84;5047163;28;1938;-71
2021/01/31 12:18:13;;;;;;;;;;;;;;;17.20;58.84;99788.81;5047451;28;1651;-58
2021/01/31 12:20:38;;;;;;;;;;;;;;;17.22;59.18;99798.34;5040340;28;848;-70
2021/01/31 12:23:04;;;;;;;;;;;;;;;17.22;58.68;99802.88;5048049;28;1753;-58
2021/01/31 12:25:30;;;;;;;;;;;;;;;17.18;59.15;99774.75;5036496;28;1728;-71
2021/01/31 12:27:56;;;;;;;;;;;;;;;17.19;59.19;99784.44;5045469;28;796;-58
2021/01/31 12:30:23;;;;;;;;;;;;;;;17.16;58.34;99782.09;5051226;28;1736;-66
2021/01/31 12:32:49;;;;;;;;;;;;;;;17.21;59.55;99783.34;5051649;28;1749;-71
2021/01/31 12:35:16;;;;;;;;;;;;;;;17.20;58.47;99775.47;5034238;28;1991;-70
2021/01/31 12:37:42;;;;;;;;;;;;;;;17.25;59.22;99789.22;5047613;28;1624;-71
2021/01/31 12:40:08;;;;;;;;;;;;;;;17.20;58.68;99778.97;5046666;28;1447;-58
2021/01/31 12:42:33;;;;;;;;;;;;;;;17.20;59.48;99775.47;5046756;28;1338;-59
2021/01/31 12:44:58;;;;;;;;;;;;;;;17.23;58.83;99796.53;5048725;28;1437;-62
2021/01/31 12:47:24;;;;;;;;;;;;;;;17.20;59.01;99792.31;5050038;28;1597;-58
2021/01/31 12:49:49;;;;;;;;;;;;;;;17.17;59.08;99805.13;5047014;28;1243;-70
2021/01/31 12:52:14;;;;;;;;;;;;;;;17.19;58.60;99806.69;5051312;28;1739;-58
2021/01/31 12:54:40;;;;;;;;;;;;;;;17.18;58.63;99799.66;5047062;28;1958;-58
2021/01/31 12:57:05;;;;;;;;;;;;;;;17.20;59.27;99789.66;5049176;28;1613;-58
2021/01/31 12:59:30;;;;;;;;;;;;;;;17.18;59.63;99796.97;5043596;28;1374;-58
2021/01/31 13:01:56;;;;;;;;;;;;;;;17.20;59.04;99781.63;5046481;28;1429;-70
2021/01/31 13:04:21;;;;;;;;;;;;;;;17.17;59.27;99781.94;5046237;28;840;-70
2021/01/31 13:06:46;;;;;;;;;;;;;;;17.21;59.56;99777.13;5039929;28;1653;-58
2021/01/31 13:09:11;;;;;;;;;;;;;;;17.22;59.58;99774.31;5047277;28;1397;-58